Time;durP1;ratioP1;P1;durP2;ratioP2;P2;SDS_P1;SDS_P2;PMS_P1;PMS_P2;Temp;Humidity;BMP_temperature;BMP_pressure;BME280_temperature;BME280_humidity;BME280_pressure;Samples;Min_cycle;Max_cycle;Signal;HPM_P1;HPM_P2
2023/03/03 00:01:59;;;;;;;4.80;2.40;;;;;;;-1.24;88.37;97915.69;7345790;19;20100;-71
2023/03/03 00:04:23;;;;;;;3.55;1.80;;;;;;;-1.18;88.45;97915.38;7342610;19;20007;-71
2023/03/03 00:06:48;;;;;;;3.65;2.08;;;;;;;-1.15;88.56;97910.00;7341123;19;20021;-77
2023/03/03 00:09:13;;;;;;;5.78;1.80;;;;;;;-1.12;88.42;97903.75;7349506;19;20023;-79
2023/03/03 00:11:37;;;;;;;5.03;1.55;;;;;;;-1.11;88.32;97898.44;7350729;19;20010;-77
2023/03/03 00:14:02;;;;;;;9.05;3.60;;;;;;;-1.12;88.37;97901.13;7344246;19;20010;-75
2023/03/03 00:16:29;;;;;;;8.63;2.40;;;;;;;-1.06;88.03;97905.22;7350029;19;20070;-70
2023/03/03 00:18:55;;;;;;;6.38;2.72;;;;;;;-1.03;87.79;97905.06;7347081;19;20065;-74
2023/03/03 00:21:31;;;;;;;5.05;2.08;;;;;;;-0.97;87.76;97904.72;7345193;19;20018;-73
2023/03/03 00:24:18;;;;;;;1.35;1.23;;;;;;;-0.92;87.62;97900.13;7347331;19;20074;-77
2023/03/03 00:26:49;;;;;;;2.38;1.30;;;;;;;-0.87;87.43;97903.31;7347305;19;20014;-77
2023/03/03 00:29:34;;;;;;;1.20;1.15;;;;;;;-0.75;87.43;97894.81;7345751;19;20361;-75
2023/03/03 00:32:14;;;;;;;3.38;2.20;;;;;;;-0.73;87.21;97900.81;7347725;19;20018;-76
2023/03/03 00:34:40;;;;;;;3.65;1.85;;;;;;;-0.79;86.84;97891.50;7345508;19;20346;-71
2023/03/03 00:37:28;;;;;;;4.18;2.00;;;;;;;-0.72;86.54;97894.66;7343388;19;20022;-74
2023/03/03 00:39:57;;;;;;;3.00;1.15;;;;;;;-0.75;86.37;97884.34;7345759;19;20019;-75
2023/03/03 00:42:23;;;;;;;4.72;1.67;;;;;;;-0.76;86.21;97882.66;7343019;19;20465;-74
2023/03/03 00:44:55;;;;;;;3.83;1.52;;;;;;;-0.69;86.25;97873.56;7345823;19;20014;-72
2023/03/03 00:47:37;;;;;;;3.35;1.98;;;;;;;-0.65;85.99;97868.97;7347794;19;20015;-72
2023/03/03 00:50:05;;;;;;;3.10;1.92;;;;;;;-0.69;85.91;97855.25;7346683;19;20086;-76
2023/03/03 00:52:33;;;;;;;4.78;2.22;;;;;;;-0.76;86.05;97856.50;7347646;19;20407;-79
2023/03/03 00:54:58;;;;;;;6.32;2.55;;;;;;;-0.73;85.85;97857.19;7343944;19;20498;-72
2023/03/03 00:57:22;;;;;;;5.15;2.50;;;;;;;-0.79;86.19;97847.03;7342804;19;20679;-74
2023/03/03 00:59:49;;;;;;;5.80;1.80;;;;;;;-0.81;86.29;97848.06;7343796;19;20010;-74
2023/03/03 01:02:14;;;;;;;1.58;1.20;;;;;;;-0.72;86.19;97844.94;7343558;19;20018;-76
2023/03/03 01:04:40;;;;;;;5.38;1.98;;;;;;;-0.69;86.43;97851.78;7343517;19;20018;-72
2023/03/03 01:07:04;;;;;;;4.63;1.65;;;;;;;-0.63;86.29;97852.28;7346236;19;20026;-70
2023/03/03 01:09:29;;;;;;;6.57;2.35;;;;;;;-0.73;86.63;97849.31;7348000;19;20011;-74
2023/03/03 01:11:54;;;;;;;3.42;1.73;;;;;;;-0.80;87.42;97855.84;7346161;19;20351;-74
2023/03/03 01:14:19;;;;;;;4.30;2.17;;;;;;;-0.84;87.70;97845.59;7343593;19;20033;-72
2023/03/03 01:16:44;;;;;;;7.93;2.53;;;;;;;-0.81;88.12;97838.44;7345763;19;20011;-72
2023/03/03 01:19:08;;;;;;;2.65;1.75;;;;;;;-0.84;88.71;97837.75;7343636;19;20480;-68
2023/03/03 01:21:33;;;;;;;11.63;3.35;;;;;;;-0.90;89.32;97844.16;7344275;19;20334;-72
2023/03/03 01:23:57;;;;;;;3.75;1.98;;;;;;;-0.90;89.82;97836.31;7343771;19;20466;-70
2023/03/03 01:26:22;;;;;;;6.32;2.67;;;;;;;-0.88;90.09;97836.22;7342134;19;20470;-69
2023/03/03 01:28:47;;;;;;;8.45;2.50;;;;;;;-0.89;90.35;97834.53;7344886;19;20446;-71
2023/03/03 01:31:12;;;;;;;7.88;2.67;;;;;;;-0.97;90.85;97823.66;7342748;19;20493;-69
2023/03/03 01:33:37;;;;;;;7.18;2.88;;;;;;;-0.90;90.86;97832.84;7344042;19;20331;-67
2023/03/03 01:36:02;;;;;;;2.50;1.60;;;;;;;-0.92;91.31;97832.94;7341594;19;20343;-69
2023/03/03 01:38:27;;;;;;;3.25;2.00;;;;;;;-0.89;91.29;97824.06;7343534;19;20018;-68
2023/03/03 01:40:57;;;;;;;5.05;2.58;;;;;;;-0.88;91.46;97831.84;7340727;19;20041;-69
2023/03/03 01:43:21;;;;;;;5.47;2.42;;;;;;;-0.90;91.48;97832.84;7344970;19;20089;-67
2023/03/03 01:45:46;;;;;;;6.32;3.17;;;;;;;-0.92;91.64;97832.94;7341617;19;20032;-70
2023/03/03 01:48:27;;;;;;;6.53;2.47;;;;;;;-0.86;91.71;97831.75;7342788;19;20049;-79
2023/03/03 01:51:01;;;;;;;7.43;2.65;;;;;;;-0.96;92.05;97822.72;7349269;19;20007;-79
2023/03/03 01:53:33;;;;;;;4.68;3.25;;;;;;;-0.90;92.37;97838.91;7345825;19;20086;-79
2023/03/03 01:55:58;;;;;;;7.03;2.40;;;;;;;-0.91;92.33;97850.34;7348177;19;20041;-78
2023/03/03 01:58:26;;;;;;;6.40;2.30;;;;;;;-0.90;92.58;97833.69;7344898;19;20023;-80
2023/03/03 02:00:58;;;;;;;3.92;2.70;;;;;;;-0.86;92.59;97827.38;7344932;19;20043;-68
2023/03/03 02:03:23;;;;;;;7.03;2.67;;;;;;;-0.85;92.68;97828.22;7342806;19;20015;-69
2023/03/03 02:05:52;;;;;;;6.40;3.08;;;;;;;-0.86;92.71;97827.38;7340167;19;20470;-72
2023/03/03 02:08:22;;;;;;;4.82;2.10;;;;;;;-0.82;92.63;97820.22;7341763;19;20046;-72
2023/03/03 02:10:47;;;;;;;7.60;2.47;;;;;;;-0.92;92.57;97817.25;7341649;19;20308;-71
2023/03/03 02:13:12;;;;;;;7.93;4.38;;;;;;;-0.83;92.50;97815.91;7341361;19;20010;-74
2023/03/03 02:15:37;;;;;;;5.43;2.95;;;;;;;-0.80;92.75;97819.22;7337252;19;20098;-74
2023/03/03 02:18:09;;;;;;;5.82;2.58;;;;;;;-0.85;92.62;97807.28;7336647;19;20014;-71
2023/03/03 02:20:59;;;;;;;4.07;2.17;;;;;;;-0.81;92.83;97803.59;7336632;19;20078;-71
2023/03/03 02:23:39;;;;;;;6.60;2.58;;;;;;;-0.82;92.80;97804.50;7338477;19;20010;-71
2023/03/03 02:26:17;;;;;;;8.75;2.60;;;;;;;-0.86;92.61;97797.75;7337397;19;20011;-72
2023/03/03 02:28:42;;;;;;;6.63;2.95;;;;;;;-0.86;92.82;97787.28;7332201;19;20017;-71
2023/03/03 02:31:15;;;;;;;3.42;2.50;;;;;;;-0.83;92.87;97780.13;7339733;19;20030;-72
2023/03/03 02:33:42;;;;;;;5.47;2.90;;;;;;;-0.84;92.85;97777.59;7335751;19;20332;-74
2023/03/03 02:36:26;;;;;;;5.93;3.28;;;;;;;-0.81;92.86;97785.28;7339794;19;20025;-74
2023/03/03 02:39:00;;;;;;;6.88;2.78;;;;;;;-0.82;92.97;97778.34;7348990;19;20066;-76
2023/03/03 02:41:35;;;;;;;7.07;2.90;;;;;;;-0.84;93.01;97780.22;7347374;19;20470;-72
2023/03/03 02:44:10;;;;;;;4.88;2.75;;;;;;;-0.80;93.07;97776.50;7350345;19;20699;-76
2023/03/03 02:46:38;;;;;;;8.80;2.85;;;;;;;-0.76;93.14;97778.84;7349594;19;20021;-71
2023/03/03 02:49:05;;;;;;;8.35;3.35;;;;;;;-0.78;92.99;97767.63;7348636;19;20099;-73
2023/03/03 02:51:30;;;;;;;15.48;3.53;;;;;;;-0.74;92.99;97755.22;7349055;19;20010;-74
2023/03/03 02:53:55;;;;;;;7.60;2.78;;;;;;;-0.77;92.90;97761.47;7349368;19;20055;-69
2023/03/03 02:56:21;;;;;;;3.38;2.03;;;;;;;-0.79;92.71;97757.25;7350960;19;20013;-73
2023/03/03 02:58:46;;;;;;;5.85;3.00;;;;;;;-0.83;92.74;97760.97;7357702;19;20011;-66
2023/03/03 03:01:11;;;;;;;6.80;2.88;;;;;;;-0.78;92.80;97761.53;7355747;19;20026;-67
2023/03/03 03:03:36;;;;;;;10.27;3.38;;;;;;;-0.85;92.83;97757.59;7350771;19;20022;-69
2023/03/03 03:06:03;;;;;;;6.85;2.45;;;;;;;-0.77;92.78;97751.00;7352209;19;20481;-68
2023/03/03 03:08:28;;;;;;;6.60;2.58;;;;;;;-0.82;92.58;97754.81;7347520;19;20461;-67
2023/03/03 03:10:55;;;;;;;5.57;2.35;;;;;;;-0.91;92.50;97758.78;7347642;19;20030;-66
2023/03/03 03:13:21;;;;;;;6.68;2.33;;;;;;;-0.93;92.88;97755.41;7346132;19;20018;-68
2023/03/03 03:15:46;;;;;;;4.22;3.20;;;;;;;-0.90;92.81;97749.16;7349269;19;20010;-68
2023/03/03 03:18:12;;;;;;;4.97;2.95;;;;;;;-0.87;92.84;97739.38;7345847;19;20019;-68
2023/03/03 03:20:38;;;;;;;5.78;2.13;;;;;;;-0.82;92.88;97755.66;7346799;19;20018;-67
2023/03/03 03:23:04;;;;;;;5.03;2.88;;;;;;;-0.82;92.95;97757.44;7345969;19;20474;-68
2023/03/03 03:25:28;;;;;;;7.55;1.92;;;;;;;-0.86;92.95;97756.75;7346759;19;20474;-71
2023/03/03 03:27:54;;;;;;;3.83;2.15;;;;;;;-0.80;93.05;97753.81;7345828;19;20337;-66
2023/03/03 03:30:19;;;;;;;7.82;3.10;;;;;;;-0.85;92.96;97752.34;7348754;19;20327;-71
2023/03/03 03:32:46;;;;;;;6.18;2.40;;;;;;;-0.89;92.99;97750.84;7339921;19;20018;-71
2023/03/03 03:35:11;;;;;;;5.63;2.92;;;;;;;-0.89;92.94;97746.44;7346160;19;20006;-71
2023/03/03 03:37:36;;;;;;;5.50;2.28;;;;;;;-0.86;92.91;97743.66;7347239;19;20465;-70
2023/03/03 03:40:01;;;;;;;6.53;2.13;;;;;;;-0.87;92.96;97733.28;7346373;19;20007;-72
2023/03/03 03:42:28;;;;;;;5.30;2.38;;;;;;;-0.88;93.09;97742.06;7352162;19;20049;-73
2023/03/03 03:44:54;;;;;;;6.10;2.63;;;;;;;-0.90;92.93;97733.44;7353515;19;20038;-72
2023/03/03 03:47:19;;;;;;;8.90;3.05;;;;;;;-0.93;93.13;97739.72;7350566;19;20027;-72
2023/03/03 03:49:43;;;;;;;6.90;2.95;;;;;;;-0.95;93.27;97732.88;7347941;19;20042;-69
2023/03/03 03:52:08;;;;;;;5.13;2.78;;;;;;;-0.94;93.25;97734.56;7345816;19;20018;-72
2023/03/03 03:54:33;;;;;;;4.70;2.35;;;;;;;-1.00;93.37;97733.13;7345224;19;19999;-70
2023/03/03 03:56:58;;;;;;;10.23;2.95;;;;;;;-0.92;93.40;97730.94;7342626;19;20046;-75
2023/03/03 03:59:23;;;;;;;6.07;2.75;;;;;;;-0.92;93.35;97730.09;7344220;19;20034;-65
2023/03/03 04:01:49;;;;;;;8.20;3.15;;;;;;;-0.93;93.34;97733.66;7344892;19;20015;-69
2023/03/03 04:04:13;;;;;;;6.00;3.28;;;;;;;-0.93;93.42;97724.03;7344472;19;20014;-67
2023/03/03 04:06:38;;;;;;;6.05;2.38;;;;;;;-0.88;93.36;97731.59;7343654;19;20010;-68
2023/03/03 04:09:04;;;;;;;5.85;2.97;;;;;;;-0.92;93.43;97719.63;7346139;19;20449;-74
2023/03/03 04:11:29;;;;;;;6.63;3.17;;;;;;;-0.86;93.38;97719.28;7346410;19;20040;-72
2023/03/03 04:13:54;;;;;;;15.52;3.20;;;;;;;-0.85;93.49;97711.34;7345227;19;20074;-68
2023/03/03 04:16:19;;;;;;;10.88;3.03;;;;;;;-0.85;93.38;97710.50;7344279;19;20042;-69
2023/03/03 04:18:44;;;;;;;8.98;3.05;;;;;;;-0.80;93.47;97713.72;7346399;19;20010;-73
2023/03/03 04:21:14;;;;;;;15.73;5.63;;;;;;;-0.78;93.19;97711.84;7349829;19;20342;-74
2023/03/03 04:23:39;;;;;;;7.32;3.35;;;;;;;-0.83;93.14;97716.50;7346162;19;20017;-71
2023/03/03 04:26:04;;;;;;;8.75;4.15;;;;;;;-0.84;93.05;97717.44;7345151;19;20014;-71
2023/03/03 04:28:29;;;;;;;9.40;3.17;;;;;;;-0.85;93.13;97715.75;7347025;19;20022;-70
2023/03/03 04:30:55;;;;;;;7.80;3.38;;;;;;;-0.87;93.03;97710.59;7345233;19;20457;-72
2023/03/03 04:33:20;;;;;;;4.88;2.78;;;;;;;-0.84;93.01;97706.97;7344877;19;20088;-79
2023/03/03 04:35:46;;;;;;;11.30;3.25;;;;;;;-0.80;93.01;97711.09;7350449;19;20125;-78
2023/03/03 04:38:11;;;;;;;6.88;2.92;;;;;;;-0.80;93.06;97713.72;7350919;19;20082;-78
2023/03/03 04:40:36;;;;;;;10.82;3.42;;;;;;;-0.79;92.90;97715.41;7358676;19;20018;-79
2023/03/03 04:43:01;;;;;;;7.03;3.80;;;;;;;-0.78;92.93;97717.06;7356953;19;20009;-79
2023/03/03 04:45:26;;;;;;;9.85;3.13;;;;;;;-0.76;93.00;97713.44;7360337;19;20019;-78
2023/03/03 04:47:50;;;;;;;5.93;2.58;;;;;;;-0.74;93.03;97711.59;7354603;19;20018;-68
2023/03/03 04:50:15;;;;;;;9.25;2.90;;;;;;;-0.73;92.91;97717.66;7353894;19;20010;-69
2023/03/03 04:52:40;;;;;;;10.40;4.00;;;;;;;-0.69;92.86;97713.97;7353420;19;20178;-68
2023/03/03 04:55:07;;;;;;;10.35;3.67;;;;;;;-0.75;93.00;97711.66;7352067;19;20058;-69
2023/03/03 04:57:32;;;;;;;9.35;3.63;;;;;;;-0.67;93.05;97719.06;7352405;19;20023;-68
2023/03/03 04:59:56;;;;;;;5.43;2.80;;;;;;;-0.61;92.95;97716.13;7350992;19;20038;-69
2023/03/03 05:02:21;;;;;;;5.68;3.38;;;;;;;-0.59;92.92;97709.88;7355900;19;20022;-68
2023/03/03 05:04:46;;;;;;;9.52;4.72;;;;;;;-0.61;92.84;97703.03;7353615;19;20033;-69
2023/03/03 05:07:11;;;;;;;5.32;3.13;;;;;;;-0.59;92.73;97717.72;7354282;19;20014;-69
2023/03/03 05:09:36;;;;;;;8.68;3.30;;;;;;;-0.58;92.74;97716.81;7353458;19;20031;-69
2023/03/03 05:12:00;;;;;;;10.13;3.58;;;;;;;-0.53;92.67;97716.50;7352846;19;20034;-70
2023/03/03 05:14:26;;;;;;;7.05;2.92;;;;;;;-0.51;92.59;97717.28;7355045;19;20133;-68
2023/03/03 05:16:50;;;;;;;6.72;3.10;;;;;;;-0.49;92.38;97718.03;7354691;19;20082;-70
2023/03/03 05:19:15;;;;;;;8.90;3.33;;;;;;;-0.55;92.43;97713.97;7354317;19;20018;-70
2023/03/03 05:21:41;;;;;;;10.30;3.22;;;;;;;-0.54;92.35;97714.81;7346261;19;20416;-67
2023/03/03 05:24:06;;;;;;;5.97;3.40;;;;;;;-0.48;92.26;97715.34;7346738;19;20018;-70
2023/03/03 05:26:30;;;;;;;18.42;3.90;;;;;;;-0.47;92.22;97721.41;7343973;19;20119;-70
2023/03/03 05:28:55;;;;;;;9.35;3.50;;;;;;;-0.45;92.24;97715.13;7344950;19;20078;-77
2023/03/03 05:31:19;;;;;;;7.82;3.88;;;;;;;-0.41;92.15;97723.66;7345018;19;20453;-77
2023/03/03 05:33:44;;;;;;;7.50;2.97;;;;;;;-0.45;92.20;97717.75;7347449;19;20020;-76
2023/03/03 05:36:08;;;;;;;8.63;3.78;;;;;;;-0.31;92.10;97716.13;7344511;19;20014;-75
2023/03/03 05:38:33;;;;;;;10.68;3.45;;;;;;;-0.29;91.96;97728.19;7346750;19;20018;-76
2023/03/03 05:40:58;;;;;;;8.00;3.53;;;;;;;-0.34;91.74;97719.78;7346699;19;20006;-74
2023/03/03 05:43:23;;;;;;;11.45;4.53;;;;;;;-0.40;91.61;97717.50;7344878;19;20042;-71
2023/03/03 05:45:53;;;;;;;6.20;3.10;;;;;;;-0.47;91.64;97718.78;7347993;19;20038;-71
2023/03/03 05:48:18;;;;;;;9.90;3.80;;;;;;;-0.33;91.57;97715.34;7346156;19;20049;-71
2023/03/03 05:50:42;;;;;;;6.68;3.20;;;;;;;-0.30;91.56;97721.25;7346863;19;20010;-71
2023/03/03 05:53:07;;;;;;;9.70;3.63;;;;;;;-0.26;91.53;97720.16;7346177;19;20014;-70
2023/03/03 05:55:32;;;;;;;6.90;3.05;;;;;;;-0.22;91.35;97721.66;7345805;19;20449;-73
2023/03/03 05:57:56;;;;;;;8.95;3.20;;;;;;;-0.21;91.12;97722.50;7343537;19;20007;-73
2023/03/03 06:00:21;;;;;;;10.38;3.53;;;;;;;-0.26;91.04;97714.09;7346830;19;20022;-72
2023/03/03 06:02:46;;;;;;;9.48;3.40;;;;;;;-0.23;91.01;97729.63;7346142;19;20031;-73
2023/03/03 06:05:11;;;;;;;15.30;4.10;;;;;;;-0.28;90.65;97736.88;7346809;19;20062;-72
2023/03/03 06:07:36;;;;;;;7.82;2.80;;;;;;;-0.16;90.58;97716.06;7343936;19;20015;-75
2023/03/03 06:10:00;;;;;;;8.27;2.67;;;;;;;-0.09;90.52;97733.09;7344404;19;20409;-76
2023/03/03 06:12:28;;;;;;;12.07;2.95;;;;;;;-0.06;90.30;97718.97;7347037;19;20023;-76
2023/03/03 06:14:53;;;;;;;7.53;2.53;;;;;;;0.02;90.03;97729.00;7350582;19;20042;-74
2023/03/03 06:17:17;;;;;;;15.57;3.58;;;;;;;-0.13;89.49;97725.53;7350988;19;20323;-75
2023/03/03 06:19:42;;;;;;;6.43;2.70;;;;;;;-0.20;89.16;97724.19;7351262;19;20015;-67
2023/03/03 06:22:07;;;;;;;11.43;3.40;;;;;;;-0.10;89.19;97725.31;7349863;19;20014;-69
2023/03/03 06:24:32;;;;;;;4.88;2.55;;;;;;;-0.03;88.92;97729.28;7351972;19;20047;-75
2023/03/03 06:26:57;;;;;;;20.70;4.30;;;;;;;-0.04;88.78;97730.22;7349455;19;20007;-75
2023/03/03 06:29:22;;;;;;;6.65;2.92;;;;;;;-0.15;88.22;97719.53;7353586;19;20007;-76
2023/03/03 06:31:46;;;;;;;12.20;2.92;;;;;;;-0.11;88.04;97719.25;7358641;19;20090;-76
2023/03/03 06:34:11;;;;;;;9.02;3.00;;;;;;;0.04;87.99;97727.97;7359841;19;20011;-75
2023/03/03 06:36:35;;;;;;;9.68;2.95;;;;;;;0.12;87.75;97717.88;7359682;19;20017;-77
2023/03/03 06:39:00;;;;;;;5.45;2.60;;;;;;;0.13;87.12;97729.19;7357720;19;20492;-75
2023/03/03 06:41:25;;;;;;;13.20;2.83;;;;;;;0.09;86.42;97739.03;7356901;19;20062;-74
2023/03/03 06:43:50;;;;;;;8.05;3.22;;;;;;;0.22;86.14;97731.28;7359493;19;20464;-69
2023/03/03 06:46:16;;;;;;;8.73;2.67;;;;;;;0.35;85.86;97737.44;7359237;19;20500;-71
2023/03/03 06:48:40;;;;;;;8.40;1.95;;;;;;;0.42;85.92;97743.16;7357521;19;20016;-68
2023/03/03 06:51:34;;;;;;;11.63;3.22;;;;;;;0.33;85.24;97731.47;7351966;19;20018;-67
2023/03/03 06:54:05;;;;;;;11.48;2.53;;;;;;;0.28;84.75;97736.97;7353077;19;20006;-70
2023/03/03 06:56:34;;;;;;;7.72;3.05;;;;;;;0.35;84.60;97730.41;7355561;19;20018;-71
2023/03/03 06:59:01;;;;;;;7.78;2.58;;;;;;;0.38;84.67;97739.03;7352110;19;20358;-70
2023/03/03 07:01:36;;;;;;;6.55;2.38;;;;;;;0.55;84.67;97734.47;7349248;19;20078;-69
2023/03/03 07:04:00;;;;;;;7.90;2.90;;;;;;;0.55;84.15;97731.84;7351366;19;20342;-68
2023/03/03 07:06:27;;;;;;;9.60;3.70;;;;;;;0.50;83.74;97738.28;7356684;19;20341;-71
2023/03/03 07:08:52;;;;;;;12.35;3.55;;;;;;;0.40;83.32;97734.56;7350312;19;20018;-68
2023/03/03 07:11:19;;;;;;;8.55;3.08;;;;;;;0.30;82.88;97734.28;7351524;19;20031;-71
2023/03/03 07:13:53;;;;;;;9.65;2.97;;;;;;;0.35;82.35;97746.16;7350641;19;20018;-72
2023/03/03 07:16:23;;;;;;;8.15;2.50;;;;;;;0.29;82.23;97737.81;7354171;19;20053;-70
2023/03/03 07:18:59;;;;;;;8.27;2.58;;;;;;;0.31;81.87;97726.31;7348702;19;20029;-72
2023/03/03 07:21:33;;;;;;;7.65;3.20;;;;;;;0.40;81.96;97737.16;7349996;19;20465;-71
2023/03/03 07:24:00;;;;;;;6.53;3.38;;;;;;;0.32;81.54;97735.03;7347388;19;20015;-72
2023/03/03 07:26:33;;;;;;;11.20;3.47;;;;;;;0.52;82.08;97744.28;7349127;19;20524;-70
2023/03/03 07:29:07;;;;;;;11.27;3.55;;;;;;;0.61;81.74;97739.31;7347642;19;20025;-72
2023/03/03 07:31:47;;;;;;;10.80;3.45;;;;;;;0.70;80.95;97736.13;7347778;19;20468;-72
2023/03/03 07:34:35;;;;;;;3.22;2.13;;;;;;;0.78;80.52;97746.16;7347574;19;20074;-72
2023/03/03 07:37:13;;;;;;;5.15;2.90;;;;;;;0.88;80.12;97738.56;7348091;19;20121;-73
2023/03/03 07:39:42;;;;;;;7.32;3.72;;;;;;;0.85;79.87;97743.97;7343074;19;20035;-73
2023/03/03 07:42:21;;;;;;;6.45;2.78;;;;;;;1.00;79.57;97743.03;7348692;19;20466;-72
2023/03/03 07:44:57;;;;;;;5.95;2.22;;;;;;;1.11;80.18;97744.97;7346867;19;20457;-73
2023/03/03 07:47:26;;;;;;;3.67;2.25;;;;;;;1.15;79.71;97743.81;7355566;19;20018;-74
2023/03/03 07:49:56;;;;;;;4.97;2.42;;;;;;;1.08;79.35;97752.09;7352473;19;20006;-73
2023/03/03 07:52:24;;;;;;;10.25;3.15;;;;;;;1.02;78.89;97749.84;7355721;19;20014;-68
2023/03/03 07:54:49;;;;;;;5.45;3.15;;;;;;;0.98;78.72;97744.91;7347299;19;20377;-68
2023/03/03 07:57:16;;;;;;;8.82;3.28;;;;;;;0.97;78.88;97751.94;7343607;19;20003;-69
2023/03/03 07:59:47;;;;;;;7.63;2.63;;;;;;;0.90;78.64;97750.63;7348869;19;20026;-70
2023/03/03 08:02:54;;;;;;;12.23;3.30;;;;;;;0.87;77.76;97756.06;7344716;19;20018;-69
2023/03/03 08:05:37;;;;;;;10.40;2.90;;;;;;;0.88;78.15;97755.13;7341861;19;20166;-68
2023/03/03 08:08:19;;;;;;;7.07;2.22;;;;;;;0.90;78.22;97750.63;7344265;19;20119;-69
2023/03/03 08:10:49;;;;;;;11.70;3.28;;;;;;;1.04;78.58;97747.97;7342283;19;20031;-69
2023/03/03 08:13:17;;;;;;;4.03;1.95;;;;;;;1.17;78.55;97760.31;7344263;19;20022;-70
2023/03/03 08:15:44;;;;;;;7.40;2.40;;;;;;;1.28;77.26;97752.59;7342800;19;20031;-67
2023/03/03 08:18:23;;;;;;;7.60;3.65;;;;;;;1.48;77.58;97762.66;7344810;19;20018;-67
2023/03/03 08:20:51;;;;;;;6.57;4.00;;;;;;;1.55;77.08;97755.22;7343021;19;20054;-69
2023/03/03 08:23:17;;;;;;;13.20;5.82;;;;;;;1.74;78.18;97764.41;7341923;19;20007;-69
2023/03/03 08:25:42;;;;;;;6.85;3.15;;;;;;;1.78;77.80;97765.91;7343399;19;20018;-68
2023/03/03 08:28:08;;;;;;;10.43;2.88;;;;;;;1.84;77.87;97769.91;7342499;19;20014;-69
2023/03/03 08:30:33;;;;;;;6.32;2.45;;;;;;;1.91;78.02;97768.56;7346796;19;20026;-69
2023/03/03 08:32:57;;;;;;;6.03;2.40;;;;;;;1.98;77.81;97761.13;7343514;19;20064;-68
2023/03/03 08:35:22;;;;;;;8.57;3.80;;;;;;;2.01;77.33;97760.91;7339618;19;20300;-70
2023/03/03 08:37:46;;;;;;;8.00;2.90;;;;;;;2.06;77.35;97754.38;7347151;19;20007;-69
2023/03/03 08:40:11;;;;;;;8.38;3.67;;;;;;;2.06;76.47;97759.66;7346205;19;20020;-69
2023/03/03 08:42:40;;;;;;;7.45;3.30;;;;;;;2.18;76.60;97763.25;7348920;19;20020;-69
2023/03/03 08:45:05;;;;;;;4.18;2.78;;;;;;;2.28;75.95;97759.03;7345351;19;20066;-71
2023/03/03 08:47:30;;;;;;;5.18;2.22;;;;;;;2.45;75.90;97756.13;7351667;19;20014;-70
2023/03/03 08:49:54;;;;;;;6.18;3.20;;;;;;;2.49;74.95;97757.56;7349888;19;20029;-71
2023/03/03 08:52:19;;;;;;;4.93;2.72;;;;;;;2.68;75.25;97767.69;7348817;19;20025;-70
2023/03/03 08:54:43;;;;;;;8.50;2.70;;;;;;;2.85;75.05;97758.59;7344907;19;20010;-71
2023/03/03 08:57:08;;;;;;;3.70;2.20;;;;;;;2.85;73.92;97763.84;7349157;19;20017;-70
2023/03/03 08:59:37;;;;;;;5.38;2.65;;;;;;;2.83;73.08;97765.75;7348147;19;20021;-69
2023/03/03 09:02:02;;;;;;;5.78;2.83;;;;;;;2.73;72.76;97769.97;7348488;19;20363;-70
2023/03/03 09:04:27;;;;;;;9.15;2.38;;;;;;;2.62;72.58;97768.09;7351265;19;20006;-71
2023/03/03 09:06:52;;;;;;;7.15;3.10;;;;;;;2.65;72.92;97778.41;7347106;19;20022;-69
2023/03/03 09:09:16;;;;;;;3.33;1.85;;;;;;;2.78;73.29;97767.88;7346603;19;20030;-70
2023/03/03 09:11:42;;;;;;;9.43;3.38;;;;;;;2.66;71.98;97763.47;7346225;19;20023;-69
2023/03/03 09:14:11;;;;;;;6.43;2.70;;;;;;;2.44;72.36;97764.94;7343931;19;20011;-70
2023/03/03 09:16:45;;;;;;;3.33;2.13;;;;;;;2.75;74.08;97765.44;7346486;19;20006;-70
2023/03/03 09:19:34;;;;;;;8.07;2.92;;;;;;;2.85;73.31;97766.47;7343747;19;20089;-70
2023/03/03 09:22:22;;;;;;;7.80;2.75;;;;;;;2.83;73.30;97765.75;7344319;19;20018;-72
2023/03/03 09:24:49;;;;;;;8.00;3.50;;;;;;;2.69;72.05;97765.88;7347994;19;20017;-69
2023/03/03 09:27:20;;;;;;;8.50;3.00;;;;;;;2.55;71.59;97766.84;7346421;19;20469;-69
2023/03/03 09:29:44;;;;;;;4.82;2.53;;;;;;;2.61;71.82;97762.94;7349785;19;20013;-70
2023/03/03 09:32:37;;;;;;;8.75;2.65;;;;;;;2.48;70.70;97766.41;7350476;19;20023;-69
2023/03/03 09:35:30;;;;;;;6.65;2.60;;;;;;;2.39;71.13;97767.03;7346986;19;20090;-72
2023/03/03 09:37:55;;;;;;;3.78;2.50;;;;;;;2.35;71.39;97764.75;7345552;19;20010;-72
2023/03/03 09:40:29;;;;;;;6.18;2.30;;;;;;;2.52;71.72;97773.16;7347395;19;20022;-73
2023/03/03 09:43:14;;;;;;;9.70;3.20;;;;;;;2.59;70.59;97759.59;7347764;19;20022;-73
2023/03/03 09:45:58;;;;;;;3.45;1.77;;;;;;;2.74;70.86;97761.97;7346700;19;20274;-73
2023/03/03 09:48:45;;;;;;;8.75;2.70;;;;;;;2.59;69.48;97762.22;7343838;19;20131;-74
2023/03/03 09:51:19;;;;;;;6.32;2.72;;;;;;;2.79;70.36;97769.56;7354436;19;20014;-73
2023/03/03 09:54:04;;;;;;;3.63;2.13;;;;;;;3.04;70.38;97761.63;7350471;19;20024;-74
2023/03/03 09:56:48;;;;;;;4.57;2.17;;;;;;;3.47;69.53;97771.69;7350713;19;20014;-76
2023/03/03 09:59:21;;;;;;;5.82;3.35;;;;;;;3.59;68.29;97755.84;7346835;19;20018;-73
2023/03/03 10:02:07;;;;;;;5.57;2.17;;;;;;;3.67;67.88;97752.63;7348114;19;20336;-74
2023/03/03 10:04:52;;;;;;;8.27;2.45;;;;;;;3.31;67.38;97760.59;7346592;19;20408;-75
2023/03/03 10:07:31;;;;;;;4.45;2.22;;;;;;;3.43;68.69;97768.44;7343655;19;20078;-72
2023/03/03 10:10:04;;;;;;;8.18;3.38;;;;;;;3.19;67.68;97757.88;7347460;19;20031;-74
2023/03/03 10:12:46;;;;;;;5.07;2.03;;;;;;;3.10;67.68;97768.22;7343944;19;20021;-72
2023/03/03 10:15:17;;;;;;;2.17;1.63;;;;;;;3.13;67.71;97768.88;7342467;19;20288;-71
2023/03/03 10:17:55;;;;;;;4.30;1.92;;;;;;;3.18;67.87;97763.25;7343825;19;20014;-73
2023/03/03 10:20:49;;;;;;;3.90;2.08;;;;;;;3.45;68.18;97768.34;7344242;19;20023;-73
2023/03/03 10:23:14;;;;;;;4.05;2.00;;;;;;;3.46;67.11;97755.06;7342390;19;20009;-71
2023/03/03 10:25:55;;;;;;;3.83;1.98;;;;;;;3.38;65.58;97756.56;7344877;19;20015;-71
2023/03/03 10:28:29;;;;;;;11.65;2.65;;;;;;;3.16;65.67;97752.81;7344067;19;20010;-71
2023/03/03 10:31:09;;;;;;;9.02;1.95;;;;;;;3.64;66.11;97752.84;7345541;19;20021;-72
2023/03/03 10:33:40;;;;;;;8.40;2.35;;;;;;;3.95;64.59;97746.97;7342345;19;20351;-72
2023/03/03 10:36:17;;;;;;;4.18;1.70;;;;;;;4.07;63.39;97745.22;7351699;19;20414;-76
2023/03/03 10:38:54;;;;;;;4.05;1.42;;;;;;;4.05;63.16;97741.03;7349728;19;20024;-76
2023/03/03 10:41:27;;;;;;;5.82;2.33;;;;;;;3.98;63.06;97746.75;7351584;19;20006;-74
2023/03/03 10:44:01;;;;;;;4.30;1.77;;;;;;;4.04;63.92;97742.00;7352050;19;20015;-75
2023/03/03 10:46:35;;;;;;;4.45;1.92;;;;;;;3.88;63.57;97748.41;7354074;19;20014;-75
2023/03/03 10:49:31;;;;;;;6.93;2.17;;;;;;;3.90;64.10;97743.03;7363039;19;20010;-73
2023/03/03 10:52:17;;;;;;;4.30;2.40;;;;;;;3.70;64.52;97754.22;7346655;19;20006;-72
2023/03/03 10:54:44;;;;;;;8.00;2.03;;;;;;;3.65;65.06;97754.53;7350870;19;20018;-73
2023/03/03 10:57:11;;;;;;;3.28;1.77;;;;;;;3.55;65.12;97750.91;7351155;19;19998;-72
2023/03/03 10:59:45;;;;;;;6.80;2.22;;;;;;;3.54;66.99;97757.13;7381232;19;20002;-79
2023/03/03 11:02:31;;;;;;;2.97;1.65;;;;;;;3.22;64.96;97768.19;7382076;19;20009;-79
2023/03/03 11:05:08;;;;;;;3.75;1.50;;;;;;;2.97;65.62;97765.63;7361231;19;20735;-78
2023/03/03 11:08:01;;;;;;;2.15;1.75;;;;;;;2.85;66.64;97769.97;7377193;19;20487;-77
2023/03/03 11:10:57;;;;;;;6.80;1.83;;;;;;;2.82;67.80;97767.53;7380948;19;20007;-77
2023/03/03 11:13:38;;;;;;;3.05;1.67;;;;;;;2.81;67.65;97767.66;7376790;19;20031;-75
2023/03/03 11:16:14;;;;;;;6.15;2.03;;;;;;;2.88;67.08;97771.53;7380293;19;20418;-74
2023/03/03 11:19:00;;;;;;;6.38;1.95;;;;;;;3.01;67.19;97767.09;7362746;19;20374;-71
2023/03/03 11:21:31;;;;;;;2.90;1.42;;;;;;;2.86;66.82;97757.63;7348219;19;20026;-70
2023/03/03 11:24:23;;;;;;;5.05;2.42;;;;;;;2.98;67.53;97769.94;7348244;19;20039;-73
2023/03/03 11:27:06;;;;;;;3.95;1.85;;;;;;;2.86;66.88;97763.75;7347732;19;20015;-70
2023/03/03 11:29:43;;;;;;;2.70;1.50;;;;;;;2.79;67.14;97769.56;7350110;19;20010;-71
2023/03/03 11:32:54;;;;;;;9.13;1.50;;;;;;;2.86;66.87;97770.81;7349752;19;20337;-73
2023/03/03 11:35:26;;;;;;;4.50;1.85;;;;;;;2.78;66.95;97779.25;7344559;19;20010;-71
2023/03/03 11:38:12;;;;;;;5.25;2.75;;;;;;;2.90;67.56;97769.66;7348066;19;20028;-71
2023/03/03 11:40:46;;;;;;;5.93;2.00;;;;;;;2.85;67.75;97775.22;7352082;19;20078;-72
2023/03/03 11:43:25;;;;;;;10.10;2.45;;;;;;;2.70;66.64;97772.84;7348901;19;20518;-75
2023/03/03 11:45:55;;;;;;;3.72;2.30;;;;;;;2.74;67.19;97769.03;7351691;19;20007;-75
2023/03/03 11:48:25;;;;;;;5.32;2.70;;;;;;;2.73;67.28;97775.22;7353060;19;20013;-75
2023/03/03 11:50:57;;;;;;;3.65;1.80;;;;;;;2.87;68.26;97772.50;7354068;19;20003;-78